Time;durP1;ratioP1;P1;durP2;ratioP2;P2;SDS_P1;SDS_P2;PMS_P1;PMS_P2;Temp;Humidity;BMP_temperature;BMP_pressure;BME280_temperature;BME280_humidity;BME280_pressure;Samples;Min_cycle;Max_cycle;Signal;HPM_P1;HPM_P2
2022/06/09 00:00:28;;;;;;;26.48;15.05;;;12.70;99.90;;;;;;4993126;28;20046;-77
2022/06/09 00:02:58;;;;;;;21.70;13.73;;;12.60;99.90;;;;;;5020024;28;20057;-78
2022/06/09 00:05:26;;;;;;;25.50;13.65;;;12.60;99.90;;;;;;5018876;28;20072;-78
2022/06/09 00:07:55;;;;;;;21.35;13.48;;;12.60;99.90;;;;;;5004810;28;20120;-77
2022/06/09 00:10:26;;;;;;;25.80;14.07;;;12.60;99.90;;;;;;5003607;28;20049;-77
2022/06/09 00:12:53;;;;;;;25.25;15.02;;;12.70;99.90;;;;;;5004514;28;20558;-77
2022/06/09 00:15:20;;;;;;;24.00;14.07;;;12.70;99.90;;;;;;5005362;28;20053;-77
2022/06/09 00:17:47;;;;;;;19.98;12.10;;;12.60;99.90;;;;;;5006046;28;20530;-77
2022/06/09 00:20:16;;;;;;;20.75;11.95;;;12.60;99.90;;;;;;5005691;28;20566;-77
2022/06/09 00:22:43;;;;;;;19.58;13.25;;;12.60;99.90;;;;;;5003548;28;20045;-77
2022/06/09 00:25:11;;;;;;;16.52;11.60;;;12.60;99.90;;;;;;4998734;28;20449;-78
2022/06/09 00:27:38;;;;;;;18.08;11.52;;;12.70;99.90;;;;;;4993283;28;20111;-77
2022/06/09 00:30:06;;;;;;;15.93;10.25;;;12.70;99.90;;;;;;4995639;28;20208;-77
2022/06/09 00:32:34;;;;;;;18.02;11.15;;;12.70;99.90;;;;;;4990946;28;20043;-77
2022/06/09 00:35:00;;;;;;;17.48;12.05;;;12.80;99.90;;;;;;5002393;28;20562;-77
2022/06/09 00:37:27;;;;;;;18.60;12.23;;;12.80;99.90;;;;;;5003917;28;20099;-77
2022/06/09 00:39:54;;;;;;;15.57;11.75;;;12.80;99.90;;;;;;5003651;28;20042;-77
2022/06/09 00:42:21;;;;;;;18.45;12.90;;;12.80;99.90;;;;;;5028631;23;20091;-71
2022/06/09 00:44:48;;;;;;;21.48;12.35;;;12.80;99.90;;;;;;5015200;28;20042;-71
2022/06/09 00:47:31;;;;;;;18.83;12.75;;;12.80;99.90;;;;;;5015562;28;20103;-71
2022/06/09 00:50:05;;;;;;;21.77;13.82;;;12.80;99.90;;;;;;5015837;28;20049;-72
2022/06/09 00:52:37;;;;;;;20.35;12.35;;;12.80;99.90;;;;;;5015683;28;20064;-71
2022/06/09 00:55:10;;;;;;;23.65;13.25;;;12.80;99.90;;;;;;5033080;28;20049;-72
2022/06/09 00:57:48;;;;;;;27.05;13.95;;;12.80;99.90;;;;;;5016050;28;20825;-71
2022/06/09 01:00:19;;;;;;;21.92;14.50;;;12.80;99.90;;;;;;5003891;28;20045;-72
2022/06/09 01:02:46;;;;;;;29.35;15.68;;;12.90;99.90;;;;;;5012765;28;20050;-72
2022/06/09 01:05:17;;;;;;;23.48;14.90;;;13.00;99.90;;;;;;4995382;28;20041;-71
2022/06/09 01:07:49;;;;;;;23.98;13.70;;;13.00;99.90;;;;;;5019308;28;20136;-71
2022/06/09 01:10:16;;;;;;;24.65;14.88;;;12.90;99.90;;;;;;5017699;28;20060;-71
2022/06/09 01:12:46;;;;;;;24.73;15.00;;;12.90;99.90;;;;;;5016461;28;20046;-72
2022/06/09 01:15:14;;;;;;;24.33;15.18;;;12.90;99.90;;;;;;5015900;28;20118;-71
2022/06/09 01:18:07;;;;;;;28.63;15.23;;;12.90;99.90;;;;;;5017159;28;20053;-71
2022/06/09 01:20:58;;;;;;;31.80;15.15;;;13.00;99.90;;;;;;4995386;28;20055;-71
2022/06/09 01:23:40;;;;;;;33.20;16.05;;;13.00;99.90;;;;;;5003316;28;20060;-71
2022/06/09 01:26:22;;;;;;;36.50;16.35;;;13.00;99.90;;;;;;5007040;28;20469;-71
2022/06/09 01:29:19;;;;;;;32.20;16.50;;;13.00;99.90;;;;;;5009427;28;20045;-72
2022/06/09 01:31:59;;;;;;;33.00;16.67;;;13.00;99.90;;;;;;5012368;28;20123;-71
2022/06/09 01:34:38;;;;;;;27.80;16.00;;;13.10;99.90;;;;;;5012967;28;20052;-72
2022/06/09 01:37:13;;;;;;;31.45;15.85;;;13.00;99.90;;;;;;5014841;28;20083;-73
2022/06/09 01:39:45;;;;;;;35.17;16.27;;;13.10;99.90;;;;;;4994936;28;20356;-72
2022/06/09 01:42:34;;;;;;;40.38;18.42;;;13.10;99.90;;;;;;5011032;28;20092;-72
2022/06/09 01:45:08;;;;;;;35.85;17.27;;;13.10;99.90;;;;;;5011651;28;20144;-72
2022/06/09 01:47:57;;;;;;;32.83;17.98;;;13.00;99.90;;;;;;5014216;28;20053;-72
2022/06/09 01:51:01;;;;;;;38.67;18.90;;;13.10;99.90;;;;;;5013862;28;20129;-72
2022/06/09 01:53:53;;;;;;;37.40;20.63;;;13.10;99.90;;;;;;5013037;28;20050;-72
2022/06/09 01:56:43;;;;;;;39.38;19.77;;;13.10;99.90;;;;;;4996727;28;20049;-72
2022/06/09 01:59:22;;;;;;;47.58;20.65;;;13.20;99.90;;;;;;5011002;28;20054;-72
2022/06/09 02:01:57;;;;;;;46.40;22.55;;;13.20;99.90;;;;;;5010580;28;20534;-72
2022/06/09 02:04:31;;;;;;;39.60;23.08;;;13.20;99.90;;;;;;5009014;28;20044;-72
2022/06/09 02:07:01;;;;;;;39.00;19.95;;;13.20;99.90;;;;;;5014837;28;20410;-71
2022/06/09 02:09:30;;;;;;;38.55;21.92;;;13.20;99.90;;;;;;5014016;28;20537;-73
2022/06/09 02:12:00;;;;;;;47.65;23.83;;;13.20;99.90;;;;;;5014946;28;20192;-73
2022/06/09 02:14:30;;;;;;;49.08;23.40;;;13.30;99.90;;;;;;5015427;28;20069;-72
2022/06/09 02:16:57;;;;;;;40.15;22.90;;;13.30;99.90;;;;;;5015161;28;20568;-72
2022/06/09 02:19:26;;;;;;;42.53;22.90;;;13.30;99.90;;;;;;5014207;28;20083;-73
2022/06/09 02:21:53;;;;;;;41.65;22.42;;;13.30;99.90;;;;;;5014290;28;20045;-72
2022/06/09 02:24:20;;;;;;;35.08;22.75;;;13.30;99.90;;;;;;5011454;28;20050;-73
2022/06/09 02:26:47;;;;;;;41.90;24.50;;;13.30;99.90;;;;;;5011674;28;20048;-73
2022/06/09 02:29:14;;;;;;;41.03;22.35;;;13.30;99.90;;;;;;5003030;28;20052;-72
2022/06/09 02:31:42;;;;;;;40.13;22.63;;;13.30;99.90;;;;;;5013772;28;20060;-72
2022/06/09 02:34:09;;;;;;;45.75;22.17;;;13.20;99.90;;;;;;5014105;28;20088;-72
2022/06/09 02:36:36;;;;;;;36.75;21.25;;;13.30;99.90;;;;;;5018340;28;20050;-72
2022/06/09 02:39:03;;;;;;;38.30;20.98;;;13.20;99.90;;;;;;5019826;28;20528;-72
2022/06/09 02:41:30;;;;;;;32.42;20.42;;;13.20;99.90;;;;;;5017483;28;20060;-72
2022/06/09 02:43:57;;;;;;;40.25;22.17;;;13.20;99.90;;;;;;5033305;28;20433;-72
2022/06/09 02:46:24;;;;;;;38.20;21.75;;;13.20;99.90;;;;;;5015946;28;20509;-74
2022/06/09 02:48:52;;;;;;;41.35;21.70;;;13.30;99.90;;;;;;5017911;28;20237;-74
2022/06/09 02:51:26;;;;;;;36.40;21.33;;;13.30;99.90;;;;;;5018542;28;20041;-74
2022/06/09 02:53:58;;;;;;;33.40;19.55;;;13.30;99.90;;;;;;5016180;28;20084;-74
2022/06/09 02:56:25;;;;;;;41.03;21.33;;;13.30;99.90;;;;;;5018280;28;20048;-74
2022/06/09 02:58:52;;;;;;;36.42;20.92;;;13.20;99.90;;;;;;5007565;28;20045;-72
2022/06/09 03:01:20;;;;;;;48.35;23.63;;;13.30;99.90;;;;;;5011304;28;20096;-74
2022/06/09 03:03:47;;;;;;;46.80;23.73;;;13.30;99.90;;;;;;4998514;28;20529;-71
2022/06/09 03:06:14;;;;;;;41.08;22.48;;;13.40;99.90;;;;;;5007064;28;20127;-72
2022/06/09 03:08:41;;;;;;;38.20;22.13;;;13.30;99.90;;;;;;5016673;28;20145;-73
2022/06/09 03:11:12;;;;;;;44.10;23.05;;;13.40;99.90;;;;;;5017775;28;20060;-73
2022/06/09 03:13:41;;;;;;;38.85;22.35;;;13.30;99.90;;;;;;5017818;28;20092;-73
2022/06/09 03:16:09;;;;;;;38.95;23.40;;;13.30;99.90;;;;;;5019970;28;20041;-73
2022/06/09 03:18:37;;;;;;;37.80;23.17;;;13.30;99.90;;;;;;5019064;28;20049;-73
2022/06/09 03:21:04;;;;;;;45.67;24.25;;;13.20;99.90;;;;;;5017943;28;20045;-74
2022/06/09 03:23:31;;;;;;;45.90;24.50;;;13.20;99.90;;;;;;5011283;28;20050;-74
2022/06/09 03:25:59;;;;;;;53.22;24.65;;;13.20;99.90;;;;;;5008012;28;20037;-72
2022/06/09 03:28:26;;;;;;;47.00;24.42;;;13.20;99.90;;;;;;5010085;28;20041;-75
2022/06/09 03:30:54;;;;;;;44.60;23.70;;;13.20;99.90;;;;;;5011213;28;20041;-73
2022/06/09 03:33:22;;;;;;;43.40;23.45;;;13.20;99.90;;;;;;4999346;28;20401;-72
2022/06/09 03:35:48;;;;;;;43.25;24.10;;;13.20;99.90;;;;;;5005797;28;20402;-73
2022/06/09 03:38:15;;;;;;;40.22;24.50;;;13.10;99.90;;;;;;5018529;28;20041;-73
2022/06/09 03:40:42;;;;;;;45.58;24.40;;;13.10;99.90;;;;;;5018439;28;20124;-73
2022/06/09 03:43:09;;;;;;;53.92;25.40;;;13.20;99.90;;;;;;5017660;28;20145;-73
2022/06/09 03:45:36;;;;;;;50.63;23.63;;;13.10;99.90;;;;;;5018723;28;20064;-73
2022/06/09 03:48:03;;;;;;;42.63;21.48;;;13.10;99.90;;;;;;5018686;28;20064;-74
2022/06/09 03:50:31;;;;;;;43.90;22.90;;;13.10;99.90;;;;;;5014801;28;20045;-74
2022/06/09 03:52:58;;;;;;;42.85;23.05;;;13.20;99.90;;;;;;5017032;28;20045;-73
2022/06/09 03:55:26;;;;;;;43.53;23.48;;;13.20;99.90;;;;;;5012492;28;20128;-73
2022/06/09 03:57:53;;;;;;;42.70;23.73;;;13.20;99.90;;;;;;5016341;28;20053;-73
2022/06/09 04:00:24;;;;;;;33.35;20.05;;;13.20;99.90;;;;;;5013635;28;20333;-72
2022/06/09 04:02:51;;;;;;;40.42;21.05;;;13.10;99.90;;;;;;5011303;28;20058;-72
2022/06/09 04:05:18;;;;;;;41.58;21.48;;;13.20;99.90;;;;;;4997085;28;20095;-73
2022/06/09 04:07:45;;;;;;;43.70;23.92;;;13.20;99.90;;;;;;5026534;28;20357;-72
2022/06/09 04:10:19;;;;;;;42.03;23.20;;;13.20;99.90;;;;;;5016704;28;20486;-72
2022/06/09 04:12:47;;;;;;;38.45;21.42;;;13.20;99.90;;;;;;5014684;28;20049;-73
2022/06/09 04:15:15;;;;;;;44.55;21.55;;;13.20;99.90;;;;;;5015894;28;20099;-73
2022/06/09 04:17:43;;;;;;;37.03;21.15;;;13.10;99.90;;;;;;5016468;28;20437;-73
2022/06/09 04:20:12;;;;;;;45.20;22.10;;;13.20;99.90;;;;;;5016357;28;20049;-73
2022/06/09 04:22:38;;;;;;;44.92;23.00;;;13.30;99.90;;;;;;5013010;28;20363;-73
2022/06/09 04:25:13;;;;;;;41.65;22.90;;;13.30;99.90;;;;;;5007808;28;20081;-74
2022/06/09 04:27:39;;;;;;;37.67;21.52;;;13.20;99.90;;;;;;5010779;28;20060;-73
2022/06/09 04:30:07;;;;;;;42.42;22.30;;;13.10;99.90;;;;;;5006440;28;20041;-73
2022/06/09 04:32:34;;;;;;;39.20;22.08;;;13.10;99.90;;;;;;4995495;28;20053;-73
2022/06/09 04:35:01;;;;;;;39.75;23.23;;;13.10;99.90;;;;;;5015094;28;20494;-73
2022/06/09 04:40:13;;;;;;;49.03;22.92;;;13.10;99.90;;;;;;5031345;28;20057;-74
2022/06/09 04:42:40;;;;;;;44.70;21.45;;;13.10;99.90;;;;;;5014624;28;20054;-73
2022/06/09 04:45:08;;;;;;;40.03;21.35;;;13.10;99.90;;;;;;5014121;28;20418;-73
2022/06/09 04:47:35;;;;;;;40.15;21.40;;;13.10;99.90;;;;;;5016473;28;20527;-74
2022/06/09 04:50:03;;;;;;;33.88;19.88;;;13.20;99.90;;;;;;5014692;28;20049;-74
2022/06/09 04:52:29;;;;;;;40.90;22.00;;;13.20;99.90;;;;;;5014696;28;20545;-73
2022/06/09 04:54:56;;;;;;;40.70;22.60;;;13.20;99.90;;;;;;5013091;28;20049;-73
2022/06/09 04:57:23;;;;;;;46.40;21.23;;;13.30;99.90;;;;;;5007561;28;20225;-74
2022/06/09 04:59:50;;;;;;;48.90;22.52;;;13.30;99.90;;;;;;5005239;28;20123;-73
2022/06/09 05:02:17;;;;;;;45.47;20.92;;;13.30;99.90;;;;;;4997577;28;20141;-74
2022/06/09 05:04:44;;;;;;;50.63;22.60;;;13.30;99.90;;;;;;5013423;28;20088;-77
2022/06/09 05:07:11;;;;;;;44.78;21.35;;;13.30;99.90;;;;;;5013995;28;20041;-73
2022/06/09 05:09:38;;;;;;;36.85;20.77;;;13.30;99.90;;;;;;5015306;28;20597;-73
2022/06/09 05:12:05;;;;;;;33.90;21.85;;;13.30;99.90;;;;;;5012663;28;20095;-74
2022/06/09 05:14:32;;;;;;;40.35;22.27;;;13.20;99.90;;;;;;5009636;28;20050;-74
2022/06/09 05:16:58;;;;;;;37.92;21.92;;;13.30;99.90;;;;;;5010352;28;20037;-73
2022/06/09 05:19:25;;;;;;;33.67;20.17;;;13.30;99.90;;;;;;5016091;28;20127;-73
2022/06/09 05:21:52;;;;;;;38.80;22.35;;;13.20;99.90;;;;;;5014742;28;20462;-73
2022/06/09 05:24:19;;;;;;;44.15;22.50;;;13.30;99.90;;;;;;5028013;28;20053;-74
2022/06/09 05:26:46;;;;;;;36.90;21.85;;;13.20;99.90;;;;;;5003382;28;20448;-74
2022/06/09 05:29:13;;;;;;;35.00;20.35;;;13.30;99.90;;;;;;5011806;28;20497;-74
2022/06/09 05:31:40;;;;;;;36.33;21.98;;;13.20;99.90;;;;;;5007101;28;20042;-73
2022/06/09 05:34:08;;;;;;;44.83;22.58;;;13.20;99.90;;;;;;5012854;28;20195;-75
2022/06/09 05:36:35;;;;;;;39.17;22.95;;;13.30;99.90;;;;;;5011349;28;20045;-75
2022/06/09 05:44:51;;;;;;;39.78;23.55;;;13.30;99.90;;;;;;4994347;28;20045;-74
2022/06/09 05:47:20;;;;;;;39.03;23.77;;;13.30;99.90;;;;;;5011303;28;20049;-75
2022/06/09 05:49:48;;;;;;;37.40;22.95;;;13.30;99.90;;;;;;5014377;28;20056;-73
2022/06/09 05:52:18;;;;;;;50.03;26.70;;;13.30;99.90;;;;;;4997646;28;20103;-75
2022/06/09 05:54:45;;;;;;;42.25;24.27;;;13.30;99.90;;;;;;5008668;28;20053;-75
2022/06/09 05:57:12;;;;;;;44.25;27.10;;;13.30;99.90;;;;;;5009969;28;20054;-73
2022/06/09 05:59:39;;;;;;;50.72;25.65;;;13.30;99.90;;;;;;5005748;28;20042;-74
2022/06/09 06:02:06;;;;;;;44.55;27.27;;;13.30;99.90;;;;;;4991365;28;20340;-74
2022/06/09 06:04:33;;;;;;;53.28;26.17;;;13.40;99.90;;;;;;5007397;28;20429;-73
2022/06/09 06:07:00;;;;;;;44.30;25.85;;;13.30;99.90;;;;;;5014179;28;20099;-73
2022/06/09 06:09:27;;;;;;;53.85;28.98;;;13.30;99.90;;;;;;5013219;28;20518;-75
2022/06/09 06:11:54;;;;;;;47.40;29.23;;;13.40;99.90;;;;;;5014150;28;20073;-75
2022/06/09 06:14:26;;;;;;;52.05;29.17;;;13.30;99.90;;;;;;5012764;28;20061;-74
2022/06/09 06:16:53;;;;;;;52.58;28.65;;;13.30;99.90;;;;;;5017792;28;20095;-74
2022/06/09 06:19:22;;;;;;;45.42;28.23;;;13.40;99.90;;;;;;5016827;28;20558;-73
2022/06/09 06:21:59;;;;;;;45.20;27.58;;;13.40;99.90;;;;;;5015687;28;20136;-74
2022/06/09 06:24:26;;;;;;;47.80;29.88;;;13.40;99.90;;;;;;4981060;28;20085;-77
2022/06/09 06:26:53;;;;;;;52.13;30.80;;;13.50;99.90;;;;;;4957496;28;20055;-75
2022/06/09 06:29:24;;;;;;;53.88;32.58;;;13.40;99.90;;;;;;4951222;28;20057;-76
2022/06/09 06:31:51;;;;;;;51.08;30.77;;;13.40;99.90;;;;;;4976861;28;20565;-77
2022/06/09 06:34:19;;;;;;;52.65;30.52;;;13.40;99.90;;;;;;4986331;28;20046;-78
2022/06/09 06:36:46;;;;;;;49.08;30.05;;;13.50;99.90;;;;;;4986905;28;20415;-76
2022/06/09 06:39:14;;;;;;;51.97;31.23;;;13.40;99.90;;;;;;4986375;28;20504;-76
2022/06/09 06:41:41;;;;;;;53.30;32.55;;;13.40;99.90;;;;;;4959091;28;20038;-77
2022/06/09 06:44:09;;;;;;;51.33;30.23;;;13.30;99.90;;;;;;4974623;28;20127;-73
2022/06/09 06:46:36;;;;;;;58.90;33.30;;;13.40;99.90;;;;;;4961978;28;20065;-74
2022/06/09 06:49:04;;;;;;;56.75;32.20;;;13.40;99.90;;;;;;4983458;28;20054;-77
2022/06/09 06:51:31;;;;;;;54.80;31.75;;;13.50;99.90;;;;;;4988881;28;20054;-78
2022/06/09 06:53:58;;;;;;;56.97;33.53;;;13.40;99.90;;;;;;4967526;28;20050;-74
2022/06/09 06:56:25;;;;;;;63.92;32.17;;;13.40;99.90;;;;;;4969541;28;20062;-74
2022/06/09 06:58:52;;;;;;;58.30;32.38;;;13.40;99.90;;;;;;4981432;28;20051;-72
2022/06/09 07:01:19;;;;;;;54.83;31.73;;;13.40;99.90;;;;;;4982541;28;20057;-73
2022/06/09 07:03:46;;;;;;;55.80;31.52;;;13.50;99.90;;;;;;4949439;28;20042;-77
2022/06/09 07:06:13;;;;;;;61.05;33.67;;;13.50;99.90;;;;;;4963032;28;20050;-78
2022/06/09 07:08:40;;;;;;;58.85;33.25;;;13.50;99.90;;;;;;4962557;28;20117;-75
2022/06/09 07:11:08;;;;;;;49.10;32.42;;;13.50;99.90;;;;;;4982368;28;20234;-76
2022/06/09 07:13:36;;;;;;;58.78;32.50;;;13.60;99.90;;;;;;4959453;28;20051;-75
2022/06/09 07:16:07;;;;;;;54.25;33.25;;;13.60;99.90;;;;;;4944890;28;20043;-77
2022/06/09 07:18:45;;;;;;;58.33;32.58;;;13.60;99.90;;;;;;4964206;28;20050;-75
2022/06/09 07:21:13;;;;;;;66.22;32.85;;;13.70;99.90;;;;;;4948785;28;20051;-74
2022/06/09 07:23:40;;;;;;;56.85;32.38;;;13.70;99.90;;;;;;4967532;28;20558;-76
2022/06/09 07:26:07;;;;;;;50.95;32.08;;;13.80;99.90;;;;;;4966278;28;20070;-74
2022/06/09 07:28:34;;;;;;;60.38;35.28;;;13.80;99.90;;;;;;4950841;28;20046;-76
2022/06/09 07:31:04;;;;;;;60.55;34.42;;;13.80;99.90;;;;;;4947623;28;20038;-75
2022/06/09 07:33:34;;;;;;;55.75;34.17;;;13.70;99.90;;;;;;4982943;28;20180;-76
2022/06/09 07:36:10;;;;;;;59.80;34.50;;;13.70;99.90;;;;;;4986633;28;20346;-75
2022/06/09 07:38:37;;;;;;;60.78;34.92;;;13.70;99.90;;;;;;4966176;28;20125;-75
2022/06/09 07:41:05;;;;;;;49.00;32.92;;;13.80;99.90;;;;;;4948394;28;20057;-78
2022/06/09 07:43:53;;;;;;;66.82;37.28;;;13.80;99.90;;;;;;4978139;28;20046;-73
2022/06/09 07:46:22;;;;;;;67.18;36.25;;;13.80;99.90;;;;;;4954241;28;20060;-74
2022/06/09 07:48:49;;;;;;;62.25;36.38;;;13.90;99.90;;;;;;4985716;28;20217;-75
2022/06/09 07:51:17;;;;;;;59.50;35.50;;;13.90;99.90;;;;;;4982417;28;20368;-75
2022/06/09 07:53:44;;;;;;;60.70;35.95;;;14.00;99.90;;;;;;4977905;28;20061;-72
2022/06/09 07:56:11;;;;;;;52.17;34.30;;;14.00;99.90;;;;;;4954841;28;20483;-74
2022/06/09 07:58:38;;;;;;;64.82;34.92;;;14.10;99.90;;;;;;4955695;28;20050;-76
2022/06/09 08:01:05;;;;;;;63.00;37.30;;;14.00;99.90;;;;;;4962231;28;20450;-73
2022/06/09 08:03:32;;;;;;;60.95;36.55;;;14.10;99.90;;;;;;4963567;28;20143;-75
2022/06/09 08:06:00;;;;;;;63.25;38.92;;;14.00;99.90;;;;;;4979787;28;20278;-77
2022/06/09 08:08:47;;;;;;;63.60;37.10;;;14.10;99.90;;;;;;4982867;28;20042;-76
2022/06/09 08:11:14;;;;;;;61.70;36.10;;;14.10;99.90;;;;;;4963852;28;20073;-74
2022/06/09 08:13:41;;;;;;;65.55;37.05;;;14.10;99.90;;;;;;4961349;28;20053;-75
2022/06/09 08:16:08;;;;;;;57.58;36.33;;;14.10;99.90;;;;;;4962451;28;20487;-76
2022/06/09 08:18:35;;;;;;;56.55;35.22;;;14.20;99.90;;;;;;4979722;28;20061;-77
2022/06/09 08:21:02;;;;;;;60.42;38.63;;;14.20;99.90;;;;;;4980581;28;20189;-77
2022/06/09 08:23:47;;;;;;;69.78;40.95;;;14.20;99.90;;;;;;4976271;28;20038;-73
2022/06/09 08:26:14;;;;;;;57.22;36.15;;;14.30;99.90;;;;;;4966734;28;20093;-77
2022/06/09 08:28:40;;;;;;;62.78;36.53;;;14.30;99.90;;;;;;4957840;28;20526;-75
2022/06/09 08:31:07;;;;;;;58.53;35.88;;;14.30;99.90;;;;;;4965958;28;20046;-75
2022/06/09 08:33:35;;;;;;;61.13;36.50;;;14.40;99.90;;;;;;4962788;28;20344;-75
2022/06/09 08:36:04;;;;;;;54.60;37.15;;;14.50;99.90;;;;;;4961960;28;20054;-75
2022/06/09 08:38:31;;;;;;;51.97;36.20;;;14.70;99.90;;;;;;4963381;28;20262;-77
2022/06/09 08:41:08;;;;;;;55.60;37.28;;;14.90;99.90;;;;;;4950515;28;20050;-76
2022/06/09 08:43:49;;;;;;;58.13;38.80;;;15.20;99.90;;;;;;4962506;28;20136;-76
2022/06/09 08:46:27;;;;;;;52.20;39.63;;;15.30;99.90;;;;;;4981255;28;20143;-76
2022/06/09 08:48:56;;;;;;;60.13;40.17;;;15.10;99.90;;;;;;4962188;28;20495;-76
2022/06/09 08:51:36;;;;;;;58.50;40.70;;;14.90;99.90;;;;;;4942017;28;20147;-76
2022/06/09 08:54:15;;;;;;;56.67;39.42;;;14.80;99.90;;;;;;4960468;28;20454;-76
2022/06/09 08:56:42;;;;;;;57.42;38.90;;;14.70;99.90;;;;;;4950181;28;20051;-76
2022/06/09 08:59:19;;;;;;;53.45;39.47;;;14.70;99.90;;;;;;4954722;28;20403;-72
2022/06/09 09:01:53;;;;;;;49.53;37.78;;;14.80;99.90;;;;;;4974501;28;20323;-77
2022/06/09 09:04:43;;;;;;;56.00;39.08;;;14.90;99.90;;;;;;4943446;28;20065;-77
2022/06/09 09:07:25;;;;;;;47.10;37.88;;;15.10;99.90;;;;;;4959746;28;20189;-77
2022/06/09 09:10:11;;;;;;;59.80;42.05;;;15.20;99.90;;;;;;4981393;28;20057;-77
2022/06/09 09:13:09;;;;;;;53.83;38.33;;;15.40;99.90;;;;;;4957764;28;20046;-77
2022/06/09 09:15:42;;;;;;;46.13;39.40;;;15.50;99.90;;;;;;4961468;28;20050;-74
2022/06/09 09:18:22;;;;;;;49.80;39.75;;;15.50;99.90;;;;;;4979518;28;20097;-78
2022/06/09 09:20:56;;;;;;;45.42;38.75;;;15.70;99.90;;;;;;4978065;28;20553;-76
2022/06/09 09:23:34;;;;;;;48.30;40.27;;;16.00;99.90;;;;;;4943952;28;20050;-77
2022/06/09 09:26:32;;;;;;;46.60;41.13;;;16.30;99.90;;;;;;4963978;28;20808;-76
2022/06/09 09:29:13;;;;;;;49.28;38.65;;;16.40;99.90;;;;;;4947768;28;20054;-77
2022/06/09 09:31:57;;;;;;;44.53;39.85;;;16.60;99.90;;;;;;4977524;28;20042;-77
2022/06/09 09:34:39;;;;;;;45.22;40.28;;;16.60;99.90;;;;;;4961210;28;20140;-80
2022/06/09 09:37:30;;;;;;;47.05;39.78;;;16.60;99.90;;;;;;4961109;28;20057;-76
2022/06/09 09:40:11;;;;;;;48.85;40.92;;;16.40;99.90;;;;;;4978805;28;20053;-74
2022/06/09 09:42:42;;;;;;;46.85;41.30;;;16.40;99.90;;;;;;4976935;28;20136;-77
2022/06/09 09:45:12;;;;;;;44.85;40.08;;;16.30;99.90;;;;;;4977972;28;20058;-76
2022/06/09 09:47:47;;;;;;;44.72;40.25;;;16.40;99.90;;;;;;4977087;28;20558;-77
2022/06/09 09:50:31;;;;;;;45.97;41.00;;;16.60;99.90;;;;;;4977446;28;20092;-75
2022/06/09 09:53:04;;;;;;;47.28;42.13;;;16.80;99.90;;;;;;4981619;28;20396;-75
2022/06/09 09:55:35;;;;;;;45.67;40.15;;;16.80;99.90;;;;;;4958842;28;20031;-75
2022/06/09 09:58:20;;;;;;;43.65;38.95;;;16.80;99.90;;;;;;4955071;28;20531;-73
2022/06/09 10:00:53;;;;;;;50.70;40.63;;;16.80;99.90;;;;;;4961666;28;20051;-73
2022/06/09 10:10:16;;;;;;;49.22;40.15;;;16.70;99.90;;;;;;4961842;28;20474;-75
2022/06/09 10:12:44;;;;;;;44.92;40.15;;;16.60;99.90;;;;;;4959849;28;20137;-72
2022/06/09 10:15:11;;;;;;;43.38;39.08;;;16.80;99.90;;;;;;4962265;28;20124;-77
2022/06/09 10:18:03;;;;;;;40.90;37.10;;;17.30;99.90;;;;;;4961807;28;20031;-75
2022/06/09 10:20:51;;;;;;;42.88;37.38;;;18.10;99.90;;;;;;4949037;28;20041;-75
2022/06/09 10:23:46;;;;;;;43.83;39.47;;;18.30;99.90;;;;;;4946094;28;20050;-76
2022/06/09 10:26:15;;;;;;;42.10;38.13;;;18.10;99.90;;;;;;4962597;28;20066;-76
2022/06/09 10:29:16;;;;;;;42.50;38.40;;;18.10;99.90;;;;;;4976619;28;20070;-76
2022/06/09 10:31:53;;;;;;;44.45;40.10;;;18.60;99.90;;;;;;4961740;28;20046;-75
2022/06/09 10:34:52;;;;;;;44.58;39.85;;;18.80;99.90;;;;;;4961627;28;20057;-77
2022/06/09 10:37:27;;;;;;;42.13;38.20;;;18.50;99.90;;;;;;4982528;28;20097;-76
2022/06/09 10:40:20;;;;;;;44.28;39.90;;;18.40;99.90;;;;;;4970519;28;20050;-75
2022/06/09 10:43:19;;;;;;;40.28;36.22;;;18.90;99.90;;;;;;4984434;28;20670;-73
2022/06/09 10:46:04;;;;;;;37.03;34.00;;;19.50;99.90;;;;;;5001883;28;20101;-73
2022/06/09 10:58:01;;;;;;;37.17;33.78;;;19.90;99.90;;;;;;4992712;28;20099;-73
2022/06/09 11:00:32;;;;;;;38.65;35.40;;;19.80;99.90;;;;;;4976404;28;20073;-72
2022/06/09 11:03:02;;;;;;;37.17;34.28;;;20.00;99.90;;;;;;4963975;28;20092;-73
2022/06/09 11:05:36;;;;;;;37.17;33.78;;;20.20;99.90;;;;;;4986706;28;20153;-77
2022/06/09 11:08:12;;;;;;;38.20;34.80;;;20.70;99.90;;;;;;4964267;28;20051;-77
2022/06/09 11:11:05;;;;;;;37.95;34.60;;;20.40;99.90;;;;;;4993001;28;20071;-76
2022/06/09 11:14:03;;;;;;;36.72;33.53;;;20.00;99.90;;;;;;5001375;28;20718;-76
2022/06/09 11:16:42;;;;;;;38.38;34.60;;;20.00;99.90;;;;;;4984821;28;20111;-75
2022/06/09 11:19:39;;;;;;;40.38;36.60;;;19.70;99.90;;;;;;4987763;28;20084;-75
2022/06/09 11:22:09;;;;;;;36.45;33.60;;;19.90;99.90;;;;;;4995110;28;20050;-75
2022/06/09 11:25:07;;;;;;;37.45;33.97;;;19.80;99.90;;;;;;4986224;28;20100;-76
2022/06/09 11:28:10;;;;;;;33.63;30.83;;;20.00;99.90;;;;;;4968077;28;20049;-76
2022/06/09 11:31:07;;;;;;;33.38;30.73;;;20.40;99.90;;;;;;4989284;28;20046;-75
2022/06/09 11:33:50;;;;;;;32.35;29.70;;;20.70;99.90;;;;;;4966454;28;20156;-76
2022/06/09 11:36:35;;;;;;;33.92;30.90;;;20.70;99.90;;;;;;4981440;28;20050;-75
2022/06/09 11:39:35;;;;;;;33.55;30.75;;;20.40;99.90;;;;;;4983133;28;20686;-76
2022/06/09 11:42:21;;;;;;;36.67;33.28;;;20.30;99.90;;;;;;4981279;28;20056;-75
2022/06/09 11:44:51;;;;;;;31.35;28.70;;;20.60;99.90;;;;;;4984695;28;20086;-73
2022/06/09 11:47:21;;;;;;;31.80;28.85;;;21.20;99.90;;;;;;4982117;28;20049;-73
2022/06/09 11:49:51;;;;;;;32.78;29.85;;;21.50;99.90;;;;;;4997801;28;20051;-74
2022/06/09 11:52:35;;;;;;;33.05;30.25;;;21.10;99.90;;;;;;4967323;28;20050;-75
2022/06/09 11:55:27;;;;;;;32.83;30.25;;;20.60;99.90;;;;;;4983544;28;20263;-74
2022/06/09 11:57:55;;;;;;;32.50;30.02;;;20.50;99.90;;;;;;4968421;28;20055;-76
2022/06/09 12:00:33;;;;;;;34.08;31.17;;;20.60;99.90;;;;;;4961490;28;20057;-76
2022/06/09 12:03:09;;;;;;;30.65;28.20;;;20.90;99.90;;;;;;4963921;28;20050;-73
2022/06/09 12:06:02;;;;;;;30.85;28.30;;;21.10;99.90;;;;;;4980977;28;20047;-76
2022/06/09 12:08:44;;;;;;;31.08;28.60;;;21.00;99.90;;;;;;4964254;28;20053;-74
2022/06/09 12:11:18;;;;;;;31.95;29.67;;;21.30;99.90;;;;;;4979966;28;20114;-75
2022/06/09 12:14:00;;;;;;;31.35;28.92;;;21.60;99.90;;;;;;4982394;28;20081;-75
2022/06/09 12:16:50;;;;;;;31.70;29.30;;;22.20;99.90;;;;;;4977922;28;20049;-73
2022/06/09 12:19:21;;;;;;;28.35;26.23;;;22.50;99.90;;;;;;4978533;28;20534;-76
2022/06/09 12:21:55;;;;;;;22.60;20.98;;;22.50;99.90;;;;;;4984720;28;20486;-76
2022/06/09 12:24:30;;;;;;;20.40;19.17;;;21.80;99.90;;;;;;5050708;23;20209;-77
2022/06/09 12:27:38;;;;;;;19.90;18.63;;;19.90;99.90;;;;;;5025553;28;20061;-76
2022/06/09 12:30:26;;;;;;;24.02;22.17;;;18.50;99.90;;;;;;5023636;28;20053;-79
2022/06/09 12:33:11;;;;;;;24.08;22.35;;;17.70;99.90;;;;;;5016290;28;20060;-77
2022/06/09 12:35:50;;;;;;;26.42;23.77;;;16.90;99.90;;;;;;5041836;28;20241;-80
2022/06/09 12:38:32;;;;;;;20.17;18.98;;;16.20;99.90;;;;;;5025962;28;20561;-80
2022/06/09 12:41:29;;;;;;;18.00;17.00;;;15.60;99.90;;;;;;5024241;28;20064;-78
2022/06/09 12:44:07;;;;;;;17.35;16.17;;;15.20;99.90;;;;;;5043964;22;20108;-78
2022/06/09 12:46:40;;;;;;;17.52;16.42;;;15.20;99.90;;;;;;5023455;28;20477;-78
2022/06/09 12:49:17;;;;;;;18.80;17.60;;;15.20;99.90;;;;;;5024735;28;20050;-77
2022/06/09 12:51:44;;;;;;;19.60;18.17;;;15.30;99.90;;;;;;5021626;28;20057;-78
2022/06/09 12:54:30;;;;;;;20.00;18.48;;;15.30;99.90;;;;;;4999079;28;20594;-79
2022/06/09 12:57:12;;;;;;;17.42;16.17;;;15.50;99.90;;;;;;4993049;28;20123;-78
2022/06/09 12:59:41;;;;;;;15.35;14.30;;;15.60;99.90;;;;;;5008965;28;20513;-78
2022/06/09 13:02:11;;;;;;;17.13;16.00;;;15.50;99.90;;;;;;5000667;28;20045;-78
2022/06/09 13:04:55;;;;;;;18.80;17.45;;;15.40;99.90;;;;;;5009961;28;20085;-77
2022/06/09 13:07:30;;;;;;;19.55;18.15;;;15.30;99.90;;;;;;5004955;28;20058;-77
2022/06/09 13:10:17;;;;;;;17.55;16.25;;;15.20;99.90;;;;;;5005079;28;20053;-77
2022/06/09 13:12:50;;;;;;;19.05;17.20;;;15.10;99.90;;;;;;5004880;28;20739;-78
2022/06/09 13:15:40;;;;;;;20.00;18.58;;;14.90;99.90;;;;;;4973921;28;20046;-79
2022/06/09 13:18:35;;;;;;;22.30;20.55;;;14.80;99.90;;;;;;4970258;28;20476;-78
2022/06/09 13:21:16;;;;;;;22.38;20.27;;;14.70;99.90;;;;;;4997128;28;20052;-77
2022/06/09 13:23:46;;;;;;;23.55;21.33;;;14.70;99.90;;;;;;5022345;28;20080;-78